Destrehan, Louisiana
Current Conditions -  °F | °C
As of 9:53 AM on Sunday 23 Nov 2014 (Local Time) from KMSY Reporting Station
Broken Clouds Broken Clouds  
Wind Chill: 63°   Ceiling: 13000
Heat Index: 63°   Visibility: 10mi
Dew Point: 59°   Wind: 21mph
Humidity: 87%   Direction: 180°S
Pressure: 29.69"   Gusts: 28mph
Location:  29.95°N, 90.39°W
Report Text: KMSY 231553Z 18018G24KT 10SM FEW015 FEW055 SCT095 BKN130 17/15 A2969 RMK AO2 PK WND 17028/1532 RAB42E53 SLP056 P0000 T01720150
Loading
Personal Weather Stations






























Interactive Weather Map New forecast layout! Learn more

10-Day Weather Forecast

Advertisements
Track Severe Weather on mobile